sensor_id;sensor_type;location;lat;lon;timestamp;temperature;humidity
3360;DHT22;1693;49.602;11.046;2023-02-11T00:01:54;-3.10;99.90
3360;DHT22;1693;49.602;11.046;2023-02-11T00:04:22;-3.00;99.90
3360;DHT22;1693;49.602;11.046;2023-02-11T00:06:49;-3.00;99.90
3360;DHT22;1693;49.602;11.046;2023-02-11T00:09:16;-3.10;99.90
3360;DHT22;1693;49.602;11.046;2023-02-11T00:11:43;-3.20;99.90
3360;DHT22;1693;49.602;11.046;2023-02-11T00:14:10;-3.20;99.90
3360;DHT22;1693;49.602;11.046;2023-02-11T00:16:38;-3.20;99.90
3360;DHT22;1693;49.602;11.046;2023-02-11T00:19:05;-3.20;99.90
3360;DHT22;1693;49.602;11.046;2023-02-11T00:21:33;-3.20;99.90
3360;DHT22;1693;49.602;11.046;2023-02-11T00:24:00;-3.20;99.90
3360;DHT22;1693;49.602;11.046;2023-02-11T00:26:32;-3.10;99.90
3360;DHT22;1693;49.602;11.046;2023-02-11T00:28:59;-3.10;99.90
3360;DHT22;1693;49.602;11.046;2023-02-11T00:31:27;-3.10;99.90
3360;DHT22;1693;49.602;11.046;2023-02-11T00:33:54;-3.10;99.90
3360;DHT22;1693;49.602;11.046;2023-02-11T00:36:23;-3.00;99.90
3360;DHT22;1693;49.602;11.046;2023-02-11T00:38:53;-3.00;99.90
3360;DHT22;1693;49.602;11.046;2023-02-11T00:41:21;-3.00;99.90
3360;DHT22;1693;49.602;11.046;2023-02-11T00:43:49;-3.00;99.90
3360;DHT22;1693;49.602;11.046;2023-02-11T00:46:16;-3.10;99.90
3360;DHT22;1693;49.602;11.046;2023-02-11T00:48:43;-3.00;99.90
3360;DHT22;1693;49.602;11.046;2023-02-11T00:51:11;-2.90;99.90
3360;DHT22;1693;49.602;11.046;2023-02-11T00:53:38;-2.90;99.90
3360;DHT22;1693;49.602;11.046;2023-02-11T00:56:10;-2.80;99.90
3360;DHT22;1693;49.602;11.046;2023-02-11T00:58:38;-2.80;99.90
3360;DHT22;1693;49.602;11.046;2023-02-11T01:01:05;-2.80;99.90
3360;DHT22;1693;49.602;11.046;2023-02-11T01:03:33;-2.80;99.90
3360;DHT22;1693;49.602;11.046;2023-02-11T01:06:00;-2.70;99.90
3360;DHT22;1693;49.602;11.046;2023-02-11T01:08:27;-2.70;99.90
3360;DHT22;1693;49.602;11.046;2023-02-11T01:10:56;-2.60;99.90
3360;DHT22;1693;49.602;11.046;2023-02-11T01:13:25;-2.70;99.90
3360;DHT22;1693;49.602;11.046;2023-02-11T01:15:52;-2.60;99.90
3360;DHT22;1693;49.602;11.046;2023-02-11T01:18:19;-2.60;99.90
3360;DHT22;1693;49.602;11.046;2023-02-11T01:20:46;-2.60;99.90
3360;DHT22;1693;49.602;11.046;2023-02-11T01:23:13;-2.50;99.90
3360;DHT22;1693;49.602;11.046;2023-02-11T01:25:40;-2.50;99.90
3360;DHT22;1693;49.602;11.046;2023-02-11T01:28:14;-2.50;99.90
3360;DHT22;1693;49.602;11.046;2023-02-11T01:30:43;-2.50;99.90
3360;DHT22;1693;49.602;11.046;2023-02-11T01:33:10;-2.60;99.90
3360;DHT22;1693;49.602;11.046;2023-02-11T01:35:37;-2.60;99.90
3360;DHT22;1693;49.602;11.046;2023-02-11T01:38:05;-2.60;99.90
3360;DHT22;1693;49.602;11.046;2023-02-11T01:40:33;-2.60;99.90
3360;DHT22;1693;49.602;11.046;2023-02-11T01:43:00;-2.60;99.90
3360;DHT22;1693;49.602;11.046;2023-02-11T01:48:34;-2.50;99.90
3360;DHT22;1693;49.602;11.046;2023-02-11T01:51:05;-2.90;99.90
3360;DHT22;1693;49.602;11.046;2023-02-11T01:53:33;-2.90;99.90
3360;DHT22;1693;49.602;11.046;2023-02-11T01:56:17;-2.80;99.90
3360;DHT22;1693;49.602;11.046;2023-02-11T01:59:12;-2.70;99.90
3360;DHT22;1693;49.602;11.046;2023-02-11T02:01:44;-2.70;99.90
3360;DHT22;1693;49.602;11.046;2023-02-11T02:04:14;-2.70;99.90
3360;DHT22;1693;49.602;11.046;2023-02-11T02:06:46;-2.80;99.90
3360;DHT22;1693;49.602;11.046;2023-02-11T02:09:20;-2.70;99.90
3360;DHT22;1693;49.602;11.046;2023-02-11T02:11:49;-2.70;99.90
3360;DHT22;1693;49.602;11.046;2023-02-11T02:14:16;-2.70;99.90
3360;DHT22;1693;49.602;11.046;2023-02-11T02:16:43;-2.60;99.90
3360;DHT22;1693;49.602;11.046;2023-02-11T02:19:39;-2.60;99.90
3360;DHT22;1693;49.602;11.046;2023-02-11T02:22:32;-2.50;99.90
3360;DHT22;1693;49.602;11.046;2023-02-11T02:25:18;-2.50;99.90
3360;DHT22;1693;49.602;11.046;2023-02-11T02:27:54;-2.40;99.90
3360;DHT22;1693;49.602;11.046;2023-02-11T02:30:52;-2.40;99.90
3360;DHT22;1693;49.602;11.046;2023-02-11T02:33:36;-2.30;99.90
3360;DHT22;1693;49.602;11.046;2023-02-11T02:36:12;-2.40;99.90
3360;DHT22;1693;49.602;11.046;2023-02-11T02:38:46;-2.30;99.90
3360;DHT22;1693;49.602;11.046;2023-02-11T02:41:15;-2.30;99.90
3360;DHT22;1693;49.602;11.046;2023-02-11T02:43:45;-2.20;99.90
3360;DHT22;1693;49.602;11.046;2023-02-11T02:46:16;-2.10;99.90
3360;DHT22;1693;49.602;11.046;2023-02-11T02:48:45;-2.20;99.90
3360;DHT22;1693;49.602;11.046;2023-02-11T02:51:31;-2.00;99.90
3360;DHT22;1693;49.602;11.046;2023-02-11T02:54:20;-2.00;99.90
3360;DHT22;1693;49.602;11.046;2023-02-11T02:56:55;-1.90;99.90
3360;DHT22;1693;49.602;11.046;2023-02-11T02:59:40;-1.80;99.90
3360;DHT22;1693;49.602;11.046;2023-02-11T03:02:15;-1.70;99.90
3360;DHT22;1693;49.602;11.046;2023-02-11T03:04:49;-1.80;99.90
3360;DHT22;1693;49.602;11.046;2023-02-11T03:07:23;-1.70;99.90
3360;DHT22;1693;49.602;11.046;2023-02-11T03:09:57;-1.70;99.90
3360;DHT22;1693;49.602;11.046;2023-02-11T03:12:27;-1.60;99.90
3360;DHT22;1693;49.602;11.046;2023-02-11T03:14:56;-1.60;99.90
3360;DHT22;1693;49.602;11.046;2023-02-11T03:17:25;-1.60;99.90
3360;DHT22;1693;49.602;11.046;2023-02-11T03:19:56;-1.50;99.90
3360;DHT22;1693;49.602;11.046;2023-02-11T03:22:26;-1.60;99.90
3360;DHT22;1693;49.602;11.046;2023-02-11T03:24:55;-1.60;99.90
3360;DHT22;1693;49.602;11.046;2023-02-11T03:27:27;-1.50;99.90
3360;DHT22;1693;49.602;11.046;2023-02-11T03:30:03;-1.40;99.90
3360;DHT22;1693;49.602;11.046;2023-02-11T03:32:34;-1.40;99.90
3360;DHT22;1693;49.602;11.046;2023-02-11T03:35:08;-1.30;99.90
3360;DHT22;1693;49.602;11.046;2023-02-11T03:37:41;-1.40;99.90
3360;DHT22;1693;49.602;11.046;2023-02-11T03:40:12;-1.40;99.90
3360;DHT22;1693;49.602;11.046;2023-02-11T03:42:43;-1.50;99.90
3360;DHT22;1693;49.602;11.046;2023-02-11T03:45:14;-1.40;99.90
3360;DHT22;1693;49.602;11.046;2023-02-11T03:47:46;-1.40;99.90
3360;DHT22;1693;49.602;11.046;2023-02-11T03:50:16;-1.30;99.90
3360;DHT22;1693;49.602;11.046;2023-02-11T03:52:44;-1.20;99.90
3360;DHT22;1693;49.602;11.046;2023-02-11T03:55:16;-1.20;99.90
3360;DHT22;1693;49.602;11.046;2023-02-11T03:57:45;-1.20;99.90
3360;DHT22;1693;49.602;11.046;2023-02-11T04:00:12;-1.10;99.90
3360;DHT22;1693;49.602;11.046;2023-02-11T04:02:40;-1.10;99.90
3360;DHT22;1693;49.602;11.046;2023-02-11T04:05:11;-1.10;99.90
3360;DHT22;1693;49.602;11.046;2023-02-11T04:07:40;-1.20;99.90
3360;DHT22;1693;49.602;11.046;2023-02-11T04:10:07;-1.10;99.90
3360;DHT22;1693;49.602;11.046;2023-02-11T04:12:36;-0.90;99.90
3360;DHT22;1693;49.602;11.046;2023-02-11T04:15:03;-1.00;99.90
3360;DHT22;1693;49.602;11.046;2023-02-11T04:17:30;-1.00;99.90
3360;DHT22;1693;49.602;11.046;2023-02-11T04:19:58;-0.90;99.90
3360;DHT22;1693;49.602;11.046;2023-02-11T04:22:25;-1.00;99.90
3360;DHT22;1693;49.602;11.046;2023-02-11T04:24:53;-1.00;99.90
3360;DHT22;1693;49.602;11.046;2023-02-11T04:27:20;-0.80;99.90
3360;DHT22;1693;49.602;11.046;2023-02-11T04:29:47;-0.70;99.90
3360;DHT22;1693;49.602;11.046;2023-02-11T04:32:14;-0.70;99.90
3360;DHT22;1693;49.602;11.046;2023-02-11T04:34:41;-0.80;99.90
3360;DHT22;1693;49.602;11.046;2023-02-11T04:37:08;-0.80;99.90
3360;DHT22;1693;49.602;11.046;2023-02-11T04:39:35;-0.80;99.90
3360;DHT22;1693;49.602;11.046;2023-02-11T04:42:04;-0.80;99.90
3360;DHT22;1693;49.602;11.046;2023-02-11T04:44:31;-0.80;99.90
3360;DHT22;1693;49.602;11.046;2023-02-11T04:46:58;-0.90;99.90
3360;DHT22;1693;49.602;11.046;2023-02-11T04:49:26;-1.00;99.90
3360;DHT22;1693;49.602;11.046;2023-02-11T04:51:53;-0.90;99.90
3360;DHT22;1693;49.602;11.046;2023-02-11T04:54:20;-0.90;99.90
3360;DHT22;1693;49.602;11.046;2023-02-11T04:56:48;-0.90;99.90
3360;DHT22;1693;49.602;11.046;2023-02-11T04:59:17;-1.00;99.90
3360;DHT22;1693;49.602;11.046;2023-02-11T05:01:44;-0.90;99.90
3360;DHT22;1693;49.602;11.046;2023-02-11T05:04:10;-0.90;99.90
3360;DHT22;1693;49.602;11.046;2023-02-11T05:06:38;-0.90;99.90
3360;DHT22;1693;49.602;11.046;2023-02-11T05:09:05;-0.80;99.90
3360;DHT22;1693;49.602;11.046;2023-02-11T05:11:32;-0.80;99.90
3360;DHT22;1693;49.602;11.046;2023-02-11T05:13:59;-0.70;99.90
3360;DHT22;1693;49.602;11.046;2023-02-11T05:16:27;-0.70;99.90
3360;DHT22;1693;49.602;11.046;2023-02-11T05:18:54;-0.70;99.90
3360;DHT22;1693;49.602;11.046;2023-02-11T05:21:22;-0.50;99.90
3360;DHT22;1693;49.602;11.046;2023-02-11T05:23:49;-0.50;99.90
3360;DHT22;1693;49.602;11.046;2023-02-11T05:26:16;-0.40;99.90
3360;DHT22;1693;49.602;11.046;2023-02-11T05:28:43;-0.40;99.90
3360;DHT22;1693;49.602;11.046;2023-02-11T05:31:11;-0.60;99.90
3360;DHT22;1693;49.602;11.046;2023-02-11T05:33:41;-0.60;99.90
3360;DHT22;1693;49.602;11.046;2023-02-11T05:36:10;-0.60;99.90
3360;DHT22;1693;49.602;11.046;2023-02-11T05:38:38;-0.40;99.90
3360;DHT22;1693;49.602;11.046;2023-02-11T05:41:05;-0.30;99.90
3360;DHT22;1693;49.602;11.046;2023-02-11T05:43:33;-0.40;99.90
3360;DHT22;1693;49.602;11.046;2023-02-11T05:46:02;-0.60;99.90
3360;DHT22;1693;49.602;11.046;2023-02-11T05:48:29;-0.70;99.90
3360;DHT22;1693;49.602;11.046;2023-02-11T05:50:57;-0.70;99.90
3360;DHT22;1693;49.602;11.046;2023-02-11T05:53:25;-0.80;99.90
3360;DHT22;1693;49.602;11.046;2023-02-11T05:55:52;-0.80;99.90
3360;DHT22;1693;49.602;11.046;2023-02-11T05:58:19;-0.80;99.90
3360;DHT22;1693;49.602;11.046;2023-02-11T06:00:46;-0.90;99.90
3360;DHT22;1693;49.602;11.046;2023-02-11T06:03:14;-0.90;99.90
3360;DHT22;1693;49.602;11.046;2023-02-11T06:05:41;-1.00;99.90
3360;DHT22;1693;49.602;11.046;2023-02-11T06:08:10;-1.00;99.90
3360;DHT22;1693;49.602;11.046;2023-02-11T06:10:38;-1.00;99.90
3360;DHT22;1693;49.602;11.046;2023-02-11T06:13:07;-1.00;99.90
3360;DHT22;1693;49.602;11.046;2023-02-11T06:15:34;-1.00;99.90
3360;DHT22;1693;49.602;11.046;2023-02-11T06:18:02;-1.10;99.90
3360;DHT22;1693;49.602;11.046;2023-02-11T06:20:29;-1.20;99.90
3360;DHT22;1693;49.602;11.046;2023-02-11T06:22:57;-1.20;99.90
3360;DHT22;1693;49.602;11.046;2023-02-11T06:25:26;-1.20;99.90
3360;DHT22;1693;49.602;11.046;2023-02-11T06:27:53;-1.20;99.90
3360;DHT22;1693;49.602;11.046;2023-02-11T06:30:20;-1.20;99.90
3360;DHT22;1693;49.602;11.046;2023-02-11T06:32:47;-1.20;99.90
3360;DHT22;1693;49.602;11.046;2023-02-11T06:35:14;-1.30;99.90
3360;DHT22;1693;49.602;11.046;2023-02-11T06:37:41;-1.30;99.90
3360;DHT22;1693;49.602;11.046;2023-02-11T06:40:09;-1.30;99.90
3360;DHT22;1693;49.602;11.046;2023-02-11T06:42:38;-1.40;99.90
3360;DHT22;1693;49.602;11.046;2023-02-11T06:45:05;-1.50;99.90
3360;DHT22;1693;49.602;11.046;2023-02-11T06:47:34;-1.60;99.90
3360;DHT22;1693;49.602;11.046;2023-02-11T06:50:01;-1.60;99.90
3360;DHT22;1693;49.602;11.046;2023-02-11T06:52:28;-1.50;99.90
3360;DHT22;1693;49.602;11.046;2023-02-11T06:54:55;-1.40;99.90
3360;DHT22;1693;49.602;11.046;2023-02-11T06:57:22;-1.30;99.90
3360;DHT22;1693;49.602;11.046;2023-02-11T06:59:51;-1.30;99.90
3360;DHT22;1693;49.602;11.046;2023-02-11T07:02:18;-1.30;99.90
3360;DHT22;1693;49.602;11.046;2023-02-11T07:04:45;-1.20;99.90
3360;DHT22;1693;49.602;11.046;2023-02-11T07:07:12;-1.20;99.90
3360;DHT22;1693;49.602;11.046;2023-02-11T07:09:39;-1.10;99.90
3360;DHT22;1693;49.602;11.046;2023-02-11T07:12:08;-1.30;99.90
3360;DHT22;1693;49.602;11.046;2023-02-11T07:14:35;-1.20;99.90
3360;DHT22;1693;49.602;11.046;2023-02-11T07:17:03;-1.00;99.90
3360;DHT22;1693;49.602;11.046;2023-02-11T07:19:30;-0.80;99.90
3360;DHT22;1693;49.602;11.046;2023-02-11T07:21:57;-0.50;99.90
3360;DHT22;1693;49.602;11.046;2023-02-11T07:24:25;-0.50;99.90
3360;DHT22;1693;49.602;11.046;2023-02-11T07:26:52;-0.30;99.90
3360;DHT22;1693;49.602;11.046;2023-02-11T07:29:19;0.10;99.90
3360;DHT22;1693;49.602;11.046;2023-02-11T07:31:47;0.20;99.90
3360;DHT22;1693;49.602;11.046;2023-02-11T07:34:16;0.40;99.90
3360;DHT22;1693;49.602;11.046;2023-02-11T07:36:43;0.40;99.90
3360;DHT22;1693;49.602;11.046;2023-02-11T07:39:10;0.50;99.90
3360;DHT22;1693;49.602;11.046;2023-02-11T07:41:38;0.60;99.90
3360;DHT22;1693;49.602;11.046;2023-02-11T07:44:05;0.80;99.90
3360;DHT22;1693;49.602;11.046;2023-02-11T07:46:32;1.00;99.90
3360;DHT22;1693;49.602;11.046;2023-02-11T07:49:00;1.10;99.90
3360;DHT22;1693;49.602;11.046;2023-02-11T07:51:29;1.10;99.90
3360;DHT22;1693;49.602;11.046;2023-02-11T07:53:58;1.20;99.90
3360;DHT22;1693;49.602;11.046;2023-02-11T07:56:25;1.20;99.90
3360;DHT22;1693;49.602;11.046;2023-02-11T07:58:54;1.30;99.90
3360;DHT22;1693;49.602;11.046;2023-02-11T08:01:22;1.50;99.90
3360;DHT22;1693;49.602;11.046;2023-02-11T08:03:53;1.60;99.90
3360;DHT22;1693;49.602;11.046;2023-02-11T08:06:22;1.70;99.90
3360;DHT22;1693;49.602;11.046;2023-02-11T08:08:51;1.90;99.90
3360;DHT22;1693;49.602;11.046;2023-02-11T08:11:20;2.00;99.90
3360;DHT22;1693;49.602;11.046;2023-02-11T08:13:48;2.10;99.90
3360;DHT22;1693;49.602;11.046;2023-02-11T08:16:18;2.30;99.90
3360;DHT22;1693;49.602;11.046;2023-02-11T08:18:46;2.40;99.90
3360;DHT22;1693;49.602;11.046;2023-02-11T08:21:14;2.50;99.90
3360;DHT22;1693;49.602;11.046;2023-02-11T08:23:42;2.50;99.90
3360;DHT22;1693;49.602;11.046;2023-02-11T08:26:12;2.50;99.90
3360;DHT22;1693;49.602;11.046;2023-02-11T08:28:41;2.50;99.90
3360;DHT22;1693;49.602;11.046;2023-02-11T08:31:10;2.70;99.90
3360;DHT22;1693;49.602;11.046;2023-02-11T08:33:38;2.80;99.90
3360;DHT22;1693;49.602;11.046;2023-02-11T08:36:07;3.00;99.90
3360;DHT22;1693;49.602;11.046;2023-02-11T08:38:35;3.20;99.90
3360;DHT22;1693;49.602;11.046;2023-02-11T08:41:02;3.20;99.90
3360;DHT22;1693;49.602;11.046;2023-02-11T08:43:31;3.40;99.90
3360;DHT22;1693;49.602;11.046;2023-02-11T08:45:58;3.50;99.90
3360;DHT22;1693;49.602;11.046;2023-02-11T08:48:25;3.60;99.90
3360;DHT22;1693;49.602;11.046;2023-02-11T08:50:53;3.80;99.90
3360;DHT22;1693;49.602;11.046;2023-02-11T08:53:21;3.90;99.90
3360;DHT22;1693;49.602;11.046;2023-02-11T08:55:48;4.00;99.90
3360;DHT22;1693;49.602;11.046;2023-02-11T08:58:16;4.00;99.90
3360;DHT22;1693;49.602;11.046;2023-02-11T09:00:44;4.20;99.90
3360;DHT22;1693;49.602;11.046;2023-02-11T09:03:12;4.30;99.90
3360;DHT22;1693;49.602;11.046;2023-02-11T09:05:40;4.30;99.90
3360;DHT22;1693;49.602;11.046;2023-02-11T09:08:07;4.40;99.90
3360;DHT22;1693;49.602;11.046;2023-02-11T09:10:34;4.60;99.90
3360;DHT22;1693;49.602;11.046;2023-02-11T09:13:01;4.70;99.90
3360;DHT22;1693;49.602;11.046;2023-02-11T09:15:29;4.80;99.90
3360;DHT22;1693;49.602;11.046;2023-02-11T09:17:57;4.80;99.90
3360;DHT22;1693;49.602;11.046;2023-02-11T09:20:25;5.00;99.90
3360;DHT22;1693;49.602;11.046;2023-02-11T09:22:54;4.70;99.90
3360;DHT22;1693;49.602;11.046;2023-02-11T09:25:22;4.90;99.90
3360;DHT22;1693;49.602;11.046;2023-02-11T09:27:49;5.30;99.90
3360;DHT22;1693;49.602;11.046;2023-02-11T09:30:18;5.50;99.90
3360;DHT22;1693;49.602;11.046;2023-02-11T10:38:31;8.40;99.90
3360;DHT22;1693;49.602;11.046;2023-02-11T10:40:59;8.30;99.90
3360;DHT22;1693;49.602;11.046;2023-02-11T10:43:28;7.80;99.90
3360;DHT22;1693;49.602;11.046;2023-02-11T10:45:56;7.50;99.90
3360;DHT22;1693;49.602;11.046;2023-02-11T10:48:42;7.30;99.90
3360;DHT22;1693;49.602;11.046;2023-02-11T10:51:21;7.10;99.90
3360;DHT22;1693;49.602;11.046;2023-02-11T10:53:50;7.00;99.90
3360;DHT22;1693;49.602;11.046;2023-02-11T10:56:26;6.90;99.90
3360;DHT22;1693;49.602;11.046;2023-02-11T10:58:57;7.20;99.90
3360;DHT22;1693;49.602;11.046;2023-02-11T11:01:37;7.20;99.90
3360;DHT22;1693;49.602;11.046;2023-02-11T11:04:05;7.30;99.90
3360;DHT22;1693;49.602;11.046;2023-02-11T11:06:33;7.50;99.90
3360;DHT22;1693;49.602;11.046;2023-02-11T11:09:00;7.70;99.90
3360;DHT22;1693;49.602;11.046;2023-02-11T11:11:30;7.70;99.90
3360;DHT22;1693;49.602;11.046;2023-02-11T11:13:58;7.50;99.90
3360;DHT22;1693;49.602;11.046;2023-02-11T11:16:27;7.70;99.90
3360;DHT22;1693;49.602;11.046;2023-02-11T11:19:14;7.60;99.90
3360;DHT22;1693;49.602;11.046;2023-02-11T11:21:42;7.60;99.90
3360;DHT22;1693;49.602;11.046;2023-02-11T11:24:16;7.60;99.90
3360;DHT22;1693;49.602;11.046;2023-02-11T11:26:47;7.50;99.90
3360;DHT22;1693;49.602;11.046;2023-02-11T11:29:17;7.50;99.90
3360;DHT22;1693;49.602;11.046;2023-02-11T11:31:50;7.30;99.90
3360;DHT22;1693;49.602;11.046;2023-02-11T11:34:25;7.10;99.90
3360;DHT22;1693;49.602;11.046;2023-02-11T11:36:54;6.90;99.90
3360;DHT22;1693;49.602;11.046;2023-02-11T11:39:23;6.90;99.90
3360;DHT22;1693;49.602;11.046;2023-02-11T11:41:55;6.80;99.90
3360;DHT22;1693;49.602;11.046;2023-02-11T11:44:26;6.70;99.90
3360;DHT22;1693;49.602;11.046;2023-02-11T11:47:13;6.60;99.90
3360;DHT22;1693;49.602;11.046;2023-02-11T11:49:46;6.60;99.90
3360;DHT22;1693;49.602;11.046;2023-02-11T11:52:19;6.70;99.90
3360;DHT22;1693;49.602;11.046;2023-02-11T11:54:56;6.70;99.90
3360;DHT22;1693;49.602;11.046;2023-02-11T11:57:27;6.90;99.90
3360;DHT22;1693;49.602;11.046;2023-02-11T11:59:57;6.90;99.90
3360;DHT22;1693;49.602;11.046;2023-02-11T12:05:36;6.90;99.90
3360;DHT22;1693;49.602;11.046;2023-02-11T12:08:12;7.20;99.90
3360;DHT22;1693;49.602;11.046;2023-02-11T12:10:56;7.00;99.90
3360;DHT22;1693;49.602;11.046;2023-02-11T12:13:33;6.80;99.90
3360;DHT22;1693;49.602;11.046;2023-02-11T12:16:11;6.70;99.90
3360;DHT22;1693;49.602;11.046;2023-02-11T12:19:04;6.70;99.90
3360;DHT22;1693;49.602;11.046;2023-02-11T12:21:41;6.80;99.90
3360;DHT22;1693;49.602;11.046;2023-02-11T12:24:25;6.60;99.90
3360;DHT22;1693;49.602;11.046;2023-02-11T12:27:03;6.80;99.90
3360;DHT22;1693;49.602;11.046;2023-02-11T12:29:39;6.80;99.90
3360;DHT22;1693;49.602;11.046;2023-02-11T12:32:17;6.90;99.90
3360;DHT22;1693;49.602;11.046;2023-02-11T12:35:06;7.20;99.90
3360;DHT22;1693;49.602;11.046;2023-02-11T12:37:44;7.40;99.90
3360;DHT22;1693;49.602;11.046;2023-02-11T12:40:16;6.90;99.90
3360;DHT22;1693;49.602;11.046;2023-02-11T12:42:51;6.70;99.90
3360;DHT22;1693;49.602;11.046;2023-02-11T12:49:10;6.80;99.90
3360;DHT22;1693;49.602;11.046;2023-02-11T12:51:50;7.00;99.90
3360;DHT22;1693;49.602;11.046;2023-02-11T12:54:24;6.80;99.90
3360;DHT22;1693;49.602;11.046;2023-02-11T12:56:59;6.80;99.90
3360;DHT22;1693;49.602;11.046;2023-02-11T12:59:37;6.60;99.90
3360;DHT22;1693;49.602;11.046;2023-02-11T13:02:16;6.50;99.90
3360;DHT22;1693;49.602;11.046;2023-02-11T13:04:50;6.50;99.90
3360;DHT22;1693;49.602;11.046;2023-02-11T13:07:22;6.60;99.90
3360;DHT22;1693;49.602;11.046;2023-02-11T13:09:55;6.70;99.90
3360;DHT22;1693;49.602;11.046;2023-02-11T13:12:24;6.60;99.90
3360;DHT22;1693;49.602;11.046;2023-02-11T13:15:13;6.60;99.90
3360;DHT22;1693;49.602;11.046;2023-02-11T13:17:47;6.70;99.90
3360;DHT22;1693;49.602;11.046;2023-02-11T13:20:29;6.90;99.90
3360;DHT22;1693;49.602;11.046;2023-02-11T13:23:02;6.90;99.90
3360;DHT22;1693;49.602;11.046;2023-02-11T13:25:39;6.90;99.90
3360;DHT22;1693;49.602;11.046;2023-02-11T13:28:19;6.80;99.90
3360;DHT22;1693;49.602;11.046;2023-02-11T13:30:49;6.90;99.90
3360;DHT22;1693;49.602;11.046;2023-02-11T13:33:31;6.80;99.90
3360;DHT22;1693;49.602;11.046;2023-02-11T13:36:19;6.60;99.90
3360;DHT22;1693;49.602;11.046;2023-02-11T13:38:53;6.60;99.90
3360;DHT22;1693;49.602;11.046;2023-02-11T13:41:25;6.70;99.90
3360;DHT22;1693;49.602;11.046;2023-02-11T13:43:58;6.90;99.90
3360;DHT22;1693;49.602;11.046;2023-02-11T13:46:28;7.00;99.90
3360;DHT22;1693;49.602;11.046;2023-02-11T13:48:56;7.20;99.90
3360;DHT22;1693;49.602;11.046;2023-02-11T13:51:36;7.10;99.90
3360;DHT22;1693;49.602;11.046;2023-02-11T13:54:05;6.90;99.90
3360;DHT22;1693;49.602;11.046;2023-02-11T13:56:34;6.60;99.90
3360;DHT22;1693;49.602;11.046;2023-02-11T13:59:03;6.50;99.90
3360;DHT22;1693;49.602;11.046;2023-02-11T14:05:01;6.50;99.90
3360;DHT22;1693;49.602;11.046;2023-02-11T14:08:23;6.60;99.90
3360;DHT22;1693;49.602;11.046;2023-02-11T14:11:39;6.50;99.90
3360;DHT22;1693;49.602;11.046;2023-02-11T14:14:14;6.50;99.90
3360;DHT22;1693;49.602;11.046;2023-02-11T14:19:47;6.30;99.90
3360;DHT22;1693;49.602;11.046;2023-02-11T14:22:17;6.40;99.90
3360;DHT22;1693;49.602;11.046;2023-02-11T14:24:50;6.40;99.90
3360;DHT22;1693;49.602;11.046;2023-02-11T14:27:39;6.50;99.90
3360;DHT22;1693;49.602;11.046;2023-02-11T14:30:30;6.60;99.90
3360;DHT22;1693;49.602;11.046;2023-02-11T14:36:12;6.70;99.90
3360;DHT22;1693;49.602;11.046;2023-02-11T14:38:51;6.60;99.90
3360;DHT22;1693;49.602;11.046;2023-02-11T14:41:25;6.50;99.90
3360;DHT22;1693;49.602;11.046;2023-02-11T14:43:56;6.30;99.90
3360;DHT22;1693;49.602;11.046;2023-02-11T14:46:25;6.20;99.90
3360;DHT22;1693;49.602;11.046;2023-02-11T14:48:57;6.20;99.90
3360;DHT22;1693;49.602;11.046;2023-02-11T14:51:27;6.20;99.90
3360;DHT22;1693;49.602;11.046;2023-02-11T14:53:58;6.30;99.90
3360;DHT22;1693;49.602;11.046;2023-02-11T14:56:30;6.40;99.90
3360;DHT22;1693;49.602;11.046;2023-02-11T14:58:59;6.40;99.90
3360;DHT22;1693;49.602;11.046;2023-02-11T15:01:29;6.40;99.90
3360;DHT22;1693;49.602;11.046;2023-02-11T15:03:59;6.40;99.90
3360;DHT22;1693;49.602;11.046;2023-02-11T15:06:29;6.40;99.90
3360;DHT22;1693;49.602;11.046;2023-02-11T15:08:59;6.40;99.90
3360;DHT22;1693;49.602;11.046;2023-02-11T15:11:32;6.30;99.90
3360;DHT22;1693;49.602;11.046;2023-02-11T15:14:06;6.40;99.90
3360;DHT22;1693;49.602;11.046;2023-02-11T15:16:39;6.40;99.90
3360;DHT22;1693;49.602;11.046;2023-02-11T15:19:18;6.30;99.90
3360;DHT22;1693;49.602;11.046;2023-02-11T15:21:47;6.30;99.90
3360;DHT22;1693;49.602;11.046;2023-02-11T15:24:24;6.40;99.90
3360;DHT22;1693;49.602;11.046;2023-02-11T15:26:57;6.50;99.90
3360;DHT22;1693;49.602;11.046;2023-02-11T15:29:25;6.50;99.90
3360;DHT22;1693;49.602;11.046;2023-02-11T15:32:14;6.60;99.90
3360;DHT22;1693;49.602;11.046;2023-02-11T15:34:45;6.70;99.90
3360;DHT22;1693;49.602;11.046;2023-02-11T15:37:13;6.80;99.90
3360;DHT22;1693;49.602;11.046;2023-02-11T15:39:44;6.80;99.90
3360;DHT22;1693;49.602;11.046;2023-02-11T15:42:22;6.90;99.90
3360;DHT22;1693;49.602;11.046;2023-02-11T15:45:07;6.90;99.90
3360;DHT22;1693;49.602;11.046;2023-02-11T15:47:34;6.90;99.90
3360;DHT22;1693;49.602;11.046;2023-02-11T15:50:02;6.90;99.90
3360;DHT22;1693;49.602;11.046;2023-02-11T15:52:30;6.70;99.90
3360;DHT22;1693;49.602;11.046;2023-02-11T15:54:59;6.80;99.90
3360;DHT22;1693;49.602;11.046;2023-02-11T15:57:29;6.80;99.90
3360;DHT22;1693;49.602;11.046;2023-02-11T15:59:56;6.80;99.90
3360;DHT22;1693;49.602;11.046;2023-02-11T16:02:31;6.80;99.90
3360;DHT22;1693;49.602;11.046;2023-02-11T16:05:00;6.70;99.90
3360;DHT22;1693;49.602;11.046;2023-02-11T16:07:40;6.60;99.90
3360;DHT22;1693;49.602;11.046;2023-02-11T16:10:23;6.60;99.90
3360;DHT22;1693;49.602;11.046;2023-02-11T16:12:54;6.70;99.90
3360;DHT22;1693;49.602;11.046;2023-02-11T16:15:39;6.70;99.90
3360;DHT22;1693;49.602;11.046;2023-02-11T16:18:27;6.60;99.90
3360;DHT22;1693;49.602;11.046;2023-02-11T16:20:57;6.60;99.90
3360;DHT22;1693;49.602;11.046;2023-02-11T16:23:26;6.60;99.90
3360;DHT22;1693;49.602;11.046;2023-02-11T16:25:57;6.60;99.90
3360;DHT22;1693;49.602;11.046;2023-02-11T16:28:27;6.60;99.90
3360;DHT22;1693;49.602;11.046;2023-02-11T16:30:55;6.60;99.90
3360;DHT22;1693;49.602;11.046;2023-02-11T16:33:23;6.60;99.90
3360;DHT22;1693;49.602;11.046;2023-02-11T16:35:50;6.60;99.90
3360;DHT22;1693;49.602;11.046;2023-02-11T16:38:17;6.60;99.90
3360;DHT22;1693;49.602;11.046;2023-02-11T16:40:44;6.60;99.90
3360;DHT22;1693;49.602;11.046;2023-02-11T16:43:16;6.60;99.90
3360;DHT22;1693;49.602;11.046;2023-02-11T16:45:46;6.60;99.90
3360;DHT22;1693;49.602;11.046;2023-02-11T16:48:16;6.60;99.90
3360;DHT22;1693;49.602;11.046;2023-02-11T16:50:47;6.60;99.90
3360;DHT22;1693;49.602;11.046;2023-02-11T16:53:18;6.60;99.90
3360;DHT22;1693;49.602;11.046;2023-02-11T16:55:46;6.40;99.90
3360;DHT22;1693;49.602;11.046;2023-02-11T16:58:14;6.40;99.90
3360;DHT22;1693;49.602;11.046;2023-02-11T17:00:41;6.40;99.90
3360;DHT22;1693;49.602;11.046;2023-02-11T17:03:15;6.40;99.90
3360;DHT22;1693;49.602;11.046;2023-02-11T17:05:44;6.30;99.90
3360;DHT22;1693;49.602;11.046;2023-02-11T17:08:11;6.30;99.90
3360;DHT22;1693;49.602;11.046;2023-02-11T17:10:39;6.30;99.90
3360;DHT22;1693;49.602;11.046;2023-02-11T17:13:06;6.30;99.90
3360;DHT22;1693;49.602;11.046;2023-02-11T17:15:35;6.20;99.90
3360;DHT22;1693;49.602;11.046;2023-02-11T17:18:02;6.20;99.90
3360;DHT22;1693;49.602;11.046;2023-02-11T17:20:31;6.20;99.90
3360;DHT22;1693;49.602;11.046;2023-02-11T17:22:58;6.10;99.90
3360;DHT22;1693;49.602;11.046;2023-02-11T17:25:25;6.10;99.90
3360;DHT22;1693;49.602;11.046;2023-02-11T17:27:52;6.10;99.90
3360;DHT22;1693;49.602;11.046;2023-02-11T17:30:19;6.10;99.90
3360;DHT22;1693;49.602;11.046;2023-02-11T17:32:47;6.00;99.90
3360;DHT22;1693;49.602;11.046;2023-02-11T17:35:15;6.00;99.90
3360;DHT22;1693;49.602;11.046;2023-02-11T17:37:43;6.00;99.90
3360;DHT22;1693;49.602;11.046;2023-02-11T17:40:11;5.90;99.90
3360;DHT22;1693;49.602;11.046;2023-02-11T17:42:39;5.90;99.90
3360;DHT22;1693;49.602;11.046;2023-02-11T17:45:07;5.80;99.90